createdAt,value
2023-02-01T00:00:11.871Z,999.76
2023-02-01T00:01:11.872Z,999.75
2023-02-01T00:02:11.887Z,999.73
2023-02-01T00:03:11.781Z,999.71
2023-02-01T00:04:11.788Z,999.67
2023-02-01T00:05:11.765Z,999.65
2023-02-01T00:06:11.727Z,999.69
2023-02-01T00:07:14.277Z,999.62
2023-02-01T00:08:11.707Z,999.62
2023-02-01T00:09:11.660Z,999.65
2023-02-01T00:10:11.632Z,999.78
2023-02-01T00:11:11.592Z,999.71
2023-02-01T00:12:11.586Z,999.75
2023-02-01T00:13:11.559Z,999.74
2023-02-01T00:14:11.553Z,999.77
2023-02-01T00:15:11.495Z,999.76
2023-02-01T00:16:11.525Z,999.78
2023-02-01T00:17:11.462Z,999.69
2023-02-01T00:18:11.414Z,999.68
2023-02-01T00:19:11.394Z,999.64
2023-02-01T00:20:11.375Z,999.70
2023-02-01T00:21:11.345Z,999.72
2023-02-01T00:22:11.351Z,999.60
2023-02-01T00:23:11.294Z,999.72
2023-02-01T00:24:11.302Z,999.70
2023-02-01T00:25:11.262Z,999.71
2023-02-01T00:26:11.220Z,999.65
2023-02-01T00:27:11.175Z,999.67
2023-02-01T00:28:11.157Z,999.69
2023-02-01T00:29:11.142Z,999.70
2023-02-01T00:30:11.122Z,999.64
2023-02-01T00:31:11.171Z,999.74
2023-02-01T00:32:11.097Z,999.75
2023-02-01T00:33:11.049Z,999.77
2023-02-01T00:34:11.006Z,999.76
2023-02-01T00:35:11.020Z,999.76
2023-02-01T00:36:10.960Z,999.71
2023-02-01T00:37:10.951Z,999.74
2023-02-01T00:38:10.933Z,999.82
2023-02-01T00:39:10.899Z,999.75
2023-02-01T00:40:10.872Z,999.78
2023-02-01T00:41:10.817Z,999.81
2023-02-01T00:42:10.841Z,999.79
2023-02-01T00:43:10.791Z,999.80
2023-02-01T00:44:10.764Z,999.78
2023-02-01T00:45:10.697Z,999.76
2023-02-01T00:46:10.825Z,999.73
2023-02-01T00:47:10.686Z,999.75
2023-02-01T00:48:10.661Z,999.74
2023-02-01T00:49:10.623Z,999.77
2023-02-01T00:50:10.629Z,999.75
2023-02-01T00:51:10.581Z,999.75
2023-02-01T00:52:10.562Z,999.72
2023-02-01T00:53:10.522Z,999.73
2023-02-01T00:54:10.495Z,999.71
2023-02-01T00:55:10.473Z,999.72
2023-02-01T00:56:10.450Z,999.70
2023-02-01T00:57:10.430Z,999.70
2023-02-01T00:58:10.412Z,999.73
2023-02-01T00:59:10.395Z,999.73
2023-02-01T01:00:10.363Z,999.69
2023-02-01T01:01:10.341Z,999.67
2023-02-01T01:02:10.355Z,999.68
2023-02-01T01:03:10.296Z,999.66
2023-02-01T01:04:10.249Z,999.60
2023-02-01T01:05:10.210Z,999.63
2023-02-01T01:06:10.203Z,999.57
2023-02-01T01:07:10.169Z,999.51
2023-02-01T01:08:10.149Z,999.56
2023-02-01T01:09:10.116Z,999.46
2023-02-01T01:10:10.116Z,999.44
2023-02-01T01:11:10.051Z,999.48
2023-02-01T01:12:10.064Z,999.50
2023-02-01T01:13:10.002Z,999.45
2023-02-01T01:14:10.012Z,999.43
2023-02-01T01:15:09.938Z,999.43
2023-02-01T01:16:09.965Z,999.42
2023-02-01T01:17:09.944Z,999.44
2023-02-01T01:18:09.883Z,999.34
2023-02-01T01:19:09.882Z,999.38
2023-02-01T01:20:09.828Z,999.42
2023-02-01T01:21:09.832Z,999.44
2023-02-01T01:22:09.810Z,999.39
2023-02-01T01:23:09.760Z,999.35
2023-02-01T01:24:09.736Z,999.42
2023-02-01T01:25:09.717Z,999.39
2023-02-01T01:26:09.687Z,999.45
2023-02-01T01:27:09.675Z,999.41
2023-02-01T01:28:09.650Z,999.43
2023-02-01T01:29:09.625Z,999.45
2023-02-01T01:30:09.605Z,999.45
2023-02-01T01:31:09.744Z,999.47
2023-02-01T01:32:09.527Z,999.49
2023-02-01T01:33:09.530Z,999.48
2023-02-01T01:34:09.486Z,999.43
2023-02-01T01:35:09.462Z,999.43
2023-02-01T01:36:09.413Z,999.47
2023-02-01T01:37:09.464Z,999.41
2023-02-01T01:38:09.369Z,999.35
2023-02-01T01:39:09.362Z,999.36
2023-02-01T01:40:09.320Z,999.35
2023-02-01T01:41:09.311Z,999.37
2023-02-01T01:42:09.262Z,999.33
2023-02-01T01:43:09.314Z,999.35
2023-02-01T01:44:09.240Z,999.30
2023-02-01T01:45:09.199Z,999.36
2023-02-01T01:46:09.158Z,999.24
2023-02-01T01:47:09.117Z,999.27
2023-02-01T01:48:09.123Z,999.19
2023-02-01T01:49:09.112Z,999.22
2023-02-01T01:50:09.079Z,999.18
2023-02-01T01:51:09.062Z,999.17
2023-02-01T01:52:08.981Z,999.23
2023-02-01T01:53:08.995Z,999.23
2023-02-01T01:54:09.018Z,999.24
2023-02-01T01:55:08.944Z,999.30
2023-02-01T01:56:08.921Z,999.29
2023-02-01T01:57:08.897Z,999.26
2023-02-01T01:58:08.884Z,999.23
2023-02-01T01:59:08.838Z,999.20
2023-02-01T02:00:08.816Z,999.13
2023-02-01T02:01:08.921Z,999.17
2023-02-01T02:02:08.789Z,999.15
2023-02-01T02:03:08.851Z,999.09
2023-02-01T02:04:08.729Z,999.03
2023-02-01T02:05:08.778Z,999.01
2023-02-01T02:06:08.685Z,998.93
2023-02-01T02:07:08.634Z,998.92
2023-02-01T02:08:08.586Z,998.94
2023-02-01T02:09:08.575Z,998.94
2023-02-01T02:10:08.551Z,998.87
2023-02-01T02:11:08.559Z,998.92
2023-02-01T02:12:08.500Z,998.86
2023-02-01T02:13:08.452Z,998.87
2023-02-01T02:14:08.445Z,998.86
2023-02-01T02:15:08.463Z,998.88
2023-02-01T02:16:08.442Z,998.84
2023-02-01T02:17:08.390Z,998.80
2023-02-01T02:18:08.357Z,998.84
2023-02-01T02:19:08.344Z,998.82
2023-02-01T02:20:08.323Z,998.82
2023-02-01T02:21:08.268Z,998.83
2023-02-01T02:22:08.257Z,998.88
2023-02-01T02:23:08.236Z,998.81
2023-02-01T02:24:08.201Z,998.79
2023-02-01T02:25:08.199Z,998.79
2023-02-01T02:26:08.193Z,998.66
2023-02-01T02:27:08.131Z,998.64
2023-02-01T02:28:08.101Z,998.58
2023-02-01T02:29:08.055Z,998.59
2023-02-01T02:30:08.046Z,998.54
2023-02-01T02:31:08.015Z,998.55
2023-02-01T02:32:07.993Z,998.51
2023-02-01T02:33:07.974Z,998.52
2023-02-01T02:34:07.941Z,998.59
2023-02-01T02:35:07.886Z,998.51
2023-02-01T02:36:07.864Z,998.64
2023-02-01T02:37:07.875Z,998.60
2023-02-01T02:38:07.848Z,998.69
2023-02-01T02:39:07.869Z,998.71
2023-02-01T02:40:07.818Z,998.60
2023-02-01T02:41:07.777Z,998.63
2023-02-01T02:42:07.734Z,998.58
2023-02-01T02:43:07.715Z,998.63
2023-02-01T02:44:07.692Z,998.60
2023-02-01T02:45:07.668Z,998.61
2023-02-01T02:46:07.708Z,998.55
2023-02-01T02:47:07.632Z,998.52
2023-02-01T02:48:07.587Z,998.53
2023-02-01T02:49:07.581Z,998.60
2023-02-01T02:50:07.557Z,998.57
2023-02-01T02:51:07.549Z,998.62
2023-02-01T02:52:07.484Z,998.62
2023-02-01T02:53:07.499Z,998.62
2023-02-01T02:54:07.436Z,998.57
2023-02-01T02:55:07.423Z,998.59
2023-02-01T02:56:07.341Z,998.60
2023-02-01T02:57:07.353Z,998.59
2023-02-01T02:58:07.375Z,998.53
2023-02-01T02:59:07.295Z,998.61
2023-02-01T03:00:07.278Z,998.60
2023-02-01T03:01:07.387Z,998.59
2023-02-01T03:02:07.213Z,998.61
2023-02-01T03:03:07.168Z,998.64
2023-02-01T03:04:07.153Z,998.66
2023-02-01T03:05:07.150Z,998.63
2023-02-01T03:06:07.109Z,998.67
2023-02-01T03:07:07.101Z,998.63
2023-02-01T03:08:07.072Z,998.64
2023-02-01T03:09:07.056Z,998.72
2023-02-01T03:10:07.044Z,998.74
2023-02-01T03:11:07.020Z,998.74
2023-02-01T03:12:06.955Z,998.71
2023-02-01T03:13:06.954Z,998.70
2023-02-01T03:14:06.909Z,998.66
2023-02-01T03:15:06.898Z,998.64
2023-02-01T03:16:06.954Z,998.66
2023-02-01T03:17:06.845Z,998.62
2023-02-01T03:18:06.831Z,998.60
2023-02-01T03:19:06.811Z,998.67
2023-02-01T03:20:06.763Z,998.71
2023-02-01T03:21:06.732Z,998.73
2023-02-01T03:22:06.699Z,998.81
2023-02-01T03:23:06.687Z,998.80
2023-02-01T03:24:06.640Z,998.82
2023-02-01T03:25:06.620Z,998.82
2023-02-01T03:26:06.575Z,998.84
2023-02-01T03:27:06.562Z,998.81
2023-02-01T03:28:06.569Z,998.81
2023-02-01T03:29:06.572Z,998.77
2023-02-01T03:30:06.543Z,998.86
2023-02-01T03:31:06.551Z,998.85
2023-02-01T03:32:06.457Z,998.88
2023-02-01T03:33:06.408Z,998.84
2023-02-01T03:34:06.399Z,998.82
2023-02-01T03:35:06.366Z,998.90
2023-02-01T03:36:06.354Z,998.90
2023-02-01T03:37:06.346Z,998.92
2023-02-01T03:38:06.291Z,998.98
2023-02-01T03:39:06.266Z,998.99
2023-02-01T03:40:06.251Z,998.97
2023-02-01T03:41:06.222Z,999.01
2023-02-01T03:42:06.201Z,998.98
2023-02-01T03:43:06.185Z,998.97
2023-02-01T03:44:06.146Z,998.96
2023-02-01T03:45:06.177Z,998.99
2023-02-01T03:46:06.151Z,998.95
2023-02-01T03:47:06.075Z,998.98
2023-02-01T03:48:06.053Z,998.94
2023-02-01T03:49:06.066Z,998.91
2023-02-01T03:50:05.991Z,998.85
2023-02-01T03:51:05.974Z,998.87
2023-02-01T03:52:05.995Z,998.84
2023-02-01T03:53:05.920Z,998.80
2023-02-01T03:54:05.921Z,998.80
2023-02-01T03:55:05.878Z,998.76
2023-02-01T03:56:05.847Z,998.78
2023-02-01T03:57:05.834Z,998.72
2023-02-01T03:58:05.762Z,998.66
2023-02-01T03:59:05.796Z,998.67
2023-02-01T04:00:05.761Z,998.66
2023-02-01T04:01:05.724Z,998.65
2023-02-01T04:02:05.699Z,998.63
2023-02-01T04:03:05.691Z,998.59
2023-02-01T04:04:05.635Z,998.61
2023-02-01T04:05:05.607Z,998.60
2023-02-01T04:06:05.585Z,998.58
2023-02-01T04:07:05.562Z,998.53
2023-02-01T04:08:05.504Z,998.55
2023-02-01T04:09:05.539Z,998.55
2023-02-01T04:10:05.482Z,998.51
2023-02-01T04:11:05.472Z,998.56
2023-02-01T04:12:05.423Z,998.58
2023-02-01T04:13:05.401Z,998.58
2023-02-01T04:14:05.632Z,998.53
2023-02-01T04:15:05.364Z,998.55
2023-02-01T04:16:05.335Z,998.59
2023-02-01T04:17:05.306Z,998.64
2023-02-01T04:18:05.241Z,998.59
2023-02-01T04:19:05.262Z,998.65
2023-02-01T04:20:05.254Z,998.62
2023-02-01T04:21:05.196Z,998.61
2023-02-01T04:22:05.164Z,998.61
2023-02-01T04:23:05.136Z,998.66
2023-02-01T04:24:05.091Z,998.60
2023-02-01T04:25:05.096Z,998.60
2023-02-01T04:26:05.068Z,998.60
2023-02-01T04:27:05.033Z,998.59
2023-02-01T04:28:05.031Z,998.55
2023-02-01T04:29:04.998Z,998.56
2023-02-01T04:30:04.953Z,998.49
2023-02-01T04:31:05.059Z,998.52
2023-02-01T04:32:04.895Z,998.55
2023-02-01T04:33:04.872Z,998.53
2023-02-01T04:34:04.847Z,998.52
2023-02-01T04:35:04.845Z,998.48
2023-02-01T04:36:04.806Z,998.50
2023-02-01T04:37:04.784Z,998.51
2023-02-01T04:38:04.767Z,998.47
2023-02-01T04:39:04.743Z,998.49
2023-02-01T04:40:04.696Z,998.52
2023-02-01T04:41:04.676Z,998.48
2023-02-01T04:42:04.663Z,998.46
2023-02-01T04:43:04.649Z,998.49
2023-02-01T04:44:04.609Z,998.56
2023-02-01T04:45:04.582Z,998.52
2023-02-01T04:46:04.591Z,998.46
2023-02-01T04:47:04.537Z,998.48
2023-02-01T04:48:04.514Z,998.49
2023-02-01T04:49:04.496Z,998.47
2023-02-01T04:50:04.472Z,998.49
2023-02-01T04:51:04.428Z,998.51
2023-02-01T04:52:04.408Z,998.51
2023-02-01T04:53:04.363Z,998.54
2023-02-01T04:54:04.344Z,998.54
2023-02-01T04:55:04.347Z,998.55
2023-02-01T04:56:04.295Z,998.64
2023-02-01T04:57:04.279Z,998.63
2023-02-01T04:58:04.263Z,998.61
2023-02-01T04:59:04.219Z,998.57
2023-02-01T05:00:04.201Z,998.61
2023-02-01T05:01:04.184Z,998.60
2023-02-01T05:02:04.160Z,998.59
2023-02-01T05:03:04.179Z,998.60
2023-02-01T05:04:04.099Z,998.61
2023-02-01T05:05:04.062Z,998.60
2023-02-01T05:06:04.047Z,998.62
2023-02-01T05:07:04.022Z,998.63
2023-02-01T05:08:03.982Z,998.65
2023-02-01T05:09:03.986Z,998.62
2023-02-01T05:10:03.945Z,998.58
2023-02-01T05:11:03.931Z,998.60
2023-02-01T05:12:03.859Z,998.62
2023-02-01T05:13:03.839Z,998.65
2023-02-01T05:14:03.850Z,998.64
2023-02-01T05:15:03.787Z,998.60
2023-02-01T05:16:03.798Z,998.58
2023-02-01T05:17:03.786Z,998.60
2023-02-01T05:18:03.706Z,998.61
2023-02-01T05:19:03.687Z,998.57
2023-02-01T05:20:03.672Z,998.52
2023-02-01T05:21:03.633Z,998.60
2023-02-01T05:22:03.609Z,998.55
2023-02-01T05:23:03.591Z,998.66
2023-02-01T05:24:03.584Z,998.65
2023-02-01T05:25:03.536Z,998.64
2023-02-01T05:26:03.508Z,998.63
2023-02-01T05:27:03.480Z,998.59
2023-02-01T05:28:03.475Z,998.55
2023-02-01T05:29:03.430Z,998.50
2023-02-01T05:30:03.402Z,998.40
2023-02-01T05:31:03.437Z,998.39
2023-02-01T05:32:20.644Z,998.32
2023-02-01T05:33:03.346Z,998.37
2023-02-01T05:34:03.299Z,998.40
2023-02-01T05:35:03.271Z,998.38
2023-02-01T05:36:03.951Z,998.35
2023-02-01T05:37:03.222Z,998.25
2023-02-01T05:38:03.216Z,998.24
2023-02-01T05:39:03.168Z,998.22
2023-02-01T05:40:03.144Z,998.32
2023-02-01T05:41:03.121Z,998.32
2023-02-01T05:42:03.096Z,998.23
2023-02-01T05:43:03.090Z,998.29
2023-02-01T05:44:03.048Z,998.26
2023-02-01T05:45:03.016Z,998.24
2023-02-01T05:46:03.077Z,998.29
2023-02-01T05:47:02.989Z,998.26
2023-02-01T05:48:02.948Z,998.24
2023-02-01T05:49:02.910Z,998.25
2023-02-01T05:50:02.904Z,998.29
2023-02-01T05:51:02.874Z,998.26
2023-02-01T05:52:02.868Z,998.35
2023-02-01T05:53:02.891Z,998.32
2023-02-01T05:54:02.814Z,998.34
2023-02-01T05:55:02.820Z,998.38
2023-02-01T05:56:02.792Z,998.40
2023-02-01T05:57:02.744Z,998.36
2023-02-01T05:58:02.714Z,998.42
2023-02-01T05:59:02.678Z,998.42
2023-02-01T06:00:02.726Z,998.44
2023-02-01T06:01:02.632Z,998.40
2023-02-01T06:02:02.587Z,998.45
2023-02-01T06:03:02.671Z,998.42
2023-02-01T06:04:02.551Z,998.33
2023-02-01T06:05:02.505Z,998.39
2023-02-01T06:06:02.494Z,998.37
2023-02-01T06:07:02.490Z,998.41
2023-02-01T06:08:02.432Z,998.43
2023-02-01T06:09:02.423Z,998.49
2023-02-01T06:10:02.376Z,998.43
2023-02-01T06:11:02.348Z,998.47
2023-02-01T06:12:02.325Z,998.41
2023-02-01T06:13:02.296Z,998.40
2023-02-01T06:14:02.270Z,998.42
2023-02-01T06:15:02.276Z,998.45
2023-02-01T06:16:02.364Z,998.42
2023-02-01T06:17:02.194Z,998.35
2023-02-01T06:18:02.207Z,998.38
2023-02-01T06:19:02.144Z,998.45
2023-02-01T06:20:02.168Z,998.33
2023-02-01T06:21:02.112Z,998.32
2023-02-01T06:22:02.072Z,998.32
2023-02-01T06:23:02.073Z,998.30
2023-02-01T06:24:02.023Z,998.27
2023-02-01T06:25:02.001Z,998.27
2023-02-01T06:26:01.965Z,998.30
2023-02-01T06:27:01.940Z,998.31
2023-02-01T06:28:01.923Z,998.36
2023-02-01T06:29:01.885Z,998.39
2023-02-01T06:30:01.890Z,998.37
2023-02-01T06:31:02.048Z,998.41
2023-02-01T06:32:01.881Z,998.43
2023-02-01T06:33:01.782Z,998.42
2023-02-01T06:34:01.772Z,998.45
2023-02-01T06:35:01.766Z,998.44
2023-02-01T06:36:01.710Z,998.47
2023-02-01T06:37:01.686Z,998.43
2023-02-01T06:38:01.658Z,998.42
2023-02-01T06:39:01.633Z,998.47
2023-02-01T06:40:01.608Z,998.49
2023-02-01T06:41:01.643Z,998.41
2023-02-01T06:42:01.581Z,998.37
2023-02-01T06:43:01.562Z,998.41
2023-02-01T06:44:01.544Z,998.41
2023-02-01T06:45:01.522Z,998.45
2023-02-01T06:46:01.522Z,998.42
2023-02-01T06:47:01.605Z,998.47
2023-02-01T06:48:01.426Z,998.48
2023-02-01T06:51:01.336Z,998.50
2023-02-01T06:52:01.348Z,998.53
2023-02-01T06:54:01.255Z,998.62
2023-02-01T06:55:01.234Z,998.69
2023-02-01T06:56:01.219Z,998.71
2023-02-01T06:57:01.178Z,998.73
2023-02-01T06:58:01.150Z,998.75
2023-02-01T06:59:01.123Z,998.74
2023-02-01T07:00:01.103Z,998.69
2023-02-01T07:01:01.153Z,998.67
2023-02-01T07:02:01.091Z,998.66
2023-02-01T07:03:01.038Z,998.55
2023-02-01T07:04:00.994Z,998.54
2023-02-01T07:05:00.976Z,998.51
2023-02-01T07:06:00.951Z,998.56
2023-02-01T07:07:00.922Z,998.52
2023-02-01T07:08:00.889Z,998.57
2023-02-01T07:09:00.861Z,998.60
2023-02-01T07:10:00.842Z,998.57
2023-02-01T07:11:00.810Z,998.61
2023-02-01T07:12:00.800Z,998.60
2023-02-01T07:13:00.754Z,998.68
2023-02-01T07:14:00.736Z,998.79
2023-02-01T07:15:00.768Z,998.81
2023-02-01T07:16:00.727Z,998.81
2023-02-01T07:17:00.650Z,998.79
2023-02-01T07:18:00.632Z,998.79
2023-02-01T07:19:00.609Z,998.78
2023-02-01T07:20:00.585Z,998.76
2023-02-01T07:21:00.581Z,998.77
2023-02-01T07:22:00.531Z,998.71
2023-02-01T07:23:00.508Z,998.72
2023-02-01T07:24:00.490Z,998.67
2023-02-01T07:25:00.446Z,998.65
2023-02-01T07:26:00.430Z,998.59
2023-02-01T07:27:00.410Z,998.62
2023-02-01T07:28:00.401Z,998.56
2023-02-01T07:29:00.360Z,998.55
2023-02-01T07:30:00.324Z,998.55
2023-02-01T07:31:00.401Z,998.52
2023-02-01T07:32:00.290Z,998.50
2023-02-01T07:33:00.245Z,998.53
2023-02-01T07:34:00.223Z,998.59
2023-02-01T07:35:00.210Z,998.53
2023-02-01T07:36:00.173Z,998.52
2023-02-01T07:37:00.161Z,998.50
2023-02-01T07:38:00.125Z,998.51
2023-02-01T07:39:00.116Z,998.48
2023-02-01T07:40:00.113Z,998.50
2023-02-01T07:41:00.038Z,998.50
2023-02-01T07:42:00.024Z,998.50
2023-02-01T07:42:59.993Z,998.52
2023-02-01T07:43:59.963Z,998.59
2023-02-01T07:45:14.669Z,998.59
2023-02-01T07:45:59.978Z,998.62
2023-02-01T07:46:59.881Z,998.59
2023-02-01T07:47:59.881Z,998.61
2023-02-01T07:48:59.872Z,998.58
2023-02-01T07:49:59.815Z,998.63
2023-02-01T07:50:59.804Z,998.66
2023-02-01T07:51:59.755Z,998.69
2023-02-01T07:52:59.756Z,998.69
2023-02-01T07:53:59.702Z,998.66
2023-02-01T07:54:59.683Z,998.67
2023-02-01T07:55:59.668Z,998.73
2023-02-01T07:56:59.633Z,998.75
2023-02-01T07:57:59.615Z,998.79
2023-02-01T07:58:59.585Z,998.85
2023-02-01T07:59:59.555Z,998.88
2023-02-01T08:00:59.540Z,998.87
2023-02-01T08:01:59.525Z,998.89
2023-02-01T08:02:59.475Z,998.95
2023-02-01T08:03:59.446Z,998.93
2023-02-01T08:04:59.436Z,998.97
2023-02-01T08:05:59.411Z,999.01
2023-02-01T08:06:59.397Z,999.04
2023-02-01T08:07:59.350Z,999.06
2023-02-01T08:08:59.321Z,999.09
2023-02-01T08:09:59.296Z,999.10
2023-02-01T08:10:59.272Z,999.11
2023-02-01T08:11:59.240Z,999.16
2023-02-01T08:12:59.230Z,999.10
2023-02-01T08:13:59.194Z,999.10
2023-02-01T08:14:59.168Z,999.09
2023-02-01T08:15:59.141Z,999.14
2023-02-01T08:16:59.109Z,999.08
2023-02-01T08:17:59.089Z,999.11
2023-02-01T08:18:59.060Z,999.08
2023-02-01T08:19:59.040Z,999.08
2023-02-01T08:20:59.011Z,999.10
2023-02-01T08:21:58.987Z,999.07
2023-02-01T08:22:58.959Z,999.11
2023-02-01T08:23:58.969Z,999.11
2023-02-01T08:24:58.910Z,999.23
2023-02-01T08:25:58.885Z,999.19
2023-02-01T08:26:58.915Z,999.19
2023-02-01T08:27:58.832Z,999.23
2023-02-01T08:28:58.809Z,999.18
2023-02-01T08:29:58.791Z,999.16
2023-02-01T08:30:58.787Z,999.23
2023-02-01T08:31:58.789Z,999.27
2023-02-01T08:32:58.713Z,999.24
2023-02-01T08:33:58.685Z,999.32
2023-02-01T08:34:58.667Z,999.28
2023-02-01T08:35:58.634Z,999.21
2023-02-01T08:36:58.611Z,999.26
2023-02-01T08:37:58.583Z,999.30
2023-02-01T08:38:58.556Z,999.26
2023-02-01T08:39:58.543Z,999.31
2023-02-01T08:40:58.505Z,999.25
2023-02-01T08:41:58.487Z,999.32
2023-02-01T08:42:58.457Z,999.29
2023-02-01T08:43:58.438Z,999.31
2023-02-01T08:44:58.412Z,999.30
2023-02-01T08:45:58.393Z,999.31
2023-02-01T08:46:58.363Z,999.35
2023-02-01T08:47:58.335Z,999.34
2023-02-01T08:48:58.301Z,999.33
2023-02-01T08:49:58.286Z,999.38
2023-02-01T08:50:58.254Z,999.36
2023-02-01T08:52:00.958Z,999.40
2023-02-01T08:52:58.217Z,999.42
2023-02-01T08:53:58.188Z,999.34
2023-02-01T08:54:58.154Z,999.33
2023-02-01T08:55:58.137Z,999.37
2023-02-01T08:56:58.126Z,999.43
2023-02-01T08:57:58.096Z,999.43
2023-02-01T08:58:58.077Z,999.45
2023-02-01T08:59:58.042Z,999.44
2023-02-01T09:00:58.084Z,999.45
2023-02-01T09:01:57.996Z,999.39
2023-02-01T09:02:58.055Z,999.43
2023-02-01T09:03:57.971Z,999.39
2023-02-01T09:05:00.710Z,999.38
2023-02-01T09:05:57.891Z,999.42
2023-02-01T09:06:57.859Z,999.45
2023-02-01T09:07:57.841Z,999.44
2023-02-01T09:08:57.829Z,999.42
2023-02-01T09:09:57.794Z,999.41
2023-02-01T09:10:57.775Z,999.42
2023-02-01T09:11:57.740Z,999.39
2023-02-01T09:12:57.716Z,999.41
2023-02-01T09:13:57.695Z,999.37
2023-02-01T09:14:57.685Z,999.36
2023-02-01T09:15:57.704Z,999.40
2023-02-01T09:16:57.614Z,999.36
2023-02-01T09:17:57.589Z,999.40
2023-02-01T09:19:22.158Z,999.38
2023-02-01T09:19:57.538Z,999.43
2023-02-01T09:20:57.533Z,999.41
2023-02-01T09:21:57.488Z,999.44
2023-02-01T09:22:57.456Z,999.45
2023-02-01T09:23:57.455Z,999.47
2023-02-01T09:24:57.438Z,999.52
2023-02-01T09:25:57.389Z,999.50
2023-02-01T09:26:57.450Z,999.54
2023-02-01T09:27:57.355Z,999.53
2023-02-01T09:28:57.316Z,999.55
2023-02-01T09:29:57.289Z,999.55
2023-02-01T09:30:57.321Z,999.60
2023-02-01T09:32:04.093Z,999.61
2023-02-01T09:32:57.228Z,999.60
2023-02-01T09:33:57.190Z,999.58
2023-02-01T09:34:57.168Z,999.69
2023-02-01T09:35:57.155Z,999.68
2023-02-01T09:36:57.128Z,999.73
2023-02-01T09:37:57.094Z,999.67
2023-02-01T09:38:57.064Z,999.75
2023-02-01T09:39:57.044Z,999.72
2023-02-01T09:40:57.089Z,999.70
2023-02-01T09:41:56.986Z,999.79
2023-02-01T09:42:56.971Z,999.89
2023-02-01T09:43:56.952Z,999.99
2023-02-01T09:44:56.926Z,1000.03
2023-02-01T09:45:56.910Z,1000.00
2023-02-01T09:46:56.868Z,1000.04
2023-02-01T09:47:56.843Z,1000.14
2023-02-01T09:48:56.820Z,1000.14
2023-02-01T09:49:56.822Z,1000.11
2023-02-01T09:50:56.795Z,1000.15
2023-02-01T09:51:56.735Z,1000.16
2023-02-01T09:52:56.729Z,1000.22
2023-02-01T09:53:56.689Z,1000.21
2023-02-01T09:54:56.672Z,1000.19
2023-02-01T09:55:56.635Z,1000.27
2023-02-01T09:56:56.618Z,1000.27
2023-02-01T09:57:56.605Z,1000.25
2023-02-01T09:58:56.565Z,1000.26
2023-02-01T09:59:58.402Z,1000.32
2023-02-01T10:00:56.517Z,1000.36
2023-02-01T10:01:56.486Z,1000.31
2023-02-01T10:02:56.505Z,1000.36
2023-02-01T10:03:56.492Z,1000.36
2023-02-01T10:04:56.423Z,1000.36
2023-02-01T10:05:56.390Z,1000.36
2023-02-01T10:06:56.378Z,1000.44
2023-02-01T10:07:56.345Z,1000.28
2023-02-01T10:08:56.317Z,1000.34
2023-02-01T10:09:56.295Z,1000.32
2023-02-01T10:10:56.272Z,1000.41
2023-02-01T10:11:56.243Z,1000.28
2023-02-01T10:12:56.239Z,1000.38
2023-02-01T10:13:56.208Z,1000.43
2023-02-01T10:14:56.180Z,1000.35
2023-02-01T10:15:56.264Z,1000.34
2023-02-01T10:16:56.231Z,1000.28
2023-02-01T10:17:57.980Z,1000.24
2023-02-01T10:18:56.074Z,1000.37
2023-02-01T10:19:56.058Z,1000.33
2023-02-01T10:20:56.030Z,1000.29
2023-02-01T10:21:55.986Z,1000.24
2023-02-01T10:23:19.107Z,1000.23
2023-02-01T10:23:57.401Z,1000.22
2023-02-01T10:24:55.921Z,1000.18
2023-02-01T10:25:55.913Z,1000.21
2023-02-01T10:26:55.984Z,1000.18
2023-02-01T10:27:55.838Z,1000.12
2023-02-01T10:28:55.854Z,1000.15
2023-02-01T10:29:55.797Z,1000.07
2023-02-01T10:30:55.876Z,1000.09
2023-02-01T10:31:55.858Z,1000.11
2023-02-01T10:32:55.721Z,1000.05
2023-02-01T10:33:55.697Z,1000.04
2023-02-01T10:34:55.670Z,1000.02
2023-02-01T10:35:55.651Z,1000.04
2023-02-01T10:36:55.627Z,999.98
2023-02-01T10:37:55.596Z,1000.02
2023-02-01T10:38:55.577Z,999.91
2023-02-01T10:39:55.544Z,999.95
2023-02-01T10:40:55.525Z,999.93
2023-02-01T10:41:55.528Z,999.88
2023-02-01T10:42:55.489Z,999.88
2023-02-01T10:43:55.444Z,999.93
2023-02-01T10:44:55.429Z,999.92
2023-02-01T10:45:55.400Z,999.89
2023-02-01T10:46:55.372Z,999.90
2023-02-01T10:47:55.339Z,999.85
2023-02-01T10:48:55.333Z,999.85
2023-02-01T10:49:55.339Z,999.75
2023-02-01T10:50:55.287Z,999.78
2023-02-01T10:51:55.249Z,999.81
2023-02-01T10:52:55.225Z,999.78
2023-02-01T10:53:55.194Z,999.74
2023-02-01T10:54:55.175Z,999.70
2023-02-01T10:55:55.159Z,999.68
2023-02-01T10:56:55.127Z,999.70
2023-02-01T10:57:55.163Z,999.69
2023-02-01T10:58:55.087Z,999.72
2023-02-01T10:59:55.085Z,999.70
2023-02-01T11:00:55.045Z,999.70
2023-02-01T11:01:59.691Z,999.75
2023-02-01T11:02:55.010Z,999.69
2023-02-01T11:03:54.966Z,999.66
2023-02-01T11:04:54.939Z,999.64
2023-02-01T11:05:54.899Z,999.60
2023-02-01T11:06:54.888Z,999.57
2023-02-01T11:07:54.851Z,999.56
2023-02-01T11:08:54.849Z,999.51
2023-02-01T11:09:54.814Z,999.50
2023-02-01T11:10:54.799Z,999.44
2023-02-01T11:11:54.755Z,999.43
2023-02-01T11:12:54.735Z,999.40
2023-02-01T11:13:54.706Z,999.34
2023-02-01T11:14:54.692Z,999.26
2023-02-01T11:15:56.190Z,999.24
2023-02-01T11:16:54.653Z,999.30
2023-02-01T11:17:54.619Z,999.24
2023-02-01T11:18:54.598Z,999.28
2023-02-01T11:19:54.557Z,999.27
2023-02-01T11:20:54.539Z,999.29
2023-02-01T11:21:54.508Z,999.32
2023-02-01T11:22:54.501Z,999.28
2023-02-01T11:23:54.460Z,999.24
2023-02-01T11:24:54.444Z,999.27
2023-02-01T11:25:54.409Z,999.26
2023-02-01T11:26:54.502Z,999.27
2023-02-01T11:27:55.524Z,999.28
2023-02-01T11:28:54.352Z,999.22
2023-02-01T11:29:54.311Z,999.36
2023-02-01T11:30:54.388Z,999.27
2023-02-01T11:31:54.306Z,999.22
2023-02-01T11:32:54.256Z,999.29
2023-02-01T11:33:54.217Z,999.34
2023-02-01T11:34:54.191Z,999.29
2023-02-01T11:35:54.167Z,999.34
2023-02-01T11:36:54.144Z,999.32
2023-02-01T11:37:54.114Z,999.36
2023-02-01T11:38:54.096Z,999.29
2023-02-01T11:39:54.094Z,999.36
2023-02-01T11:40:54.046Z,999.43
2023-02-01T11:41:54.016Z,999.42
2023-02-01T11:42:53.998Z,999.36
2023-02-01T11:43:53.982Z,999.38
2023-02-01T11:44:53.948Z,999.35
2023-02-01T11:45:53.913Z,999.41
2023-02-01T11:46:53.928Z,999.38
2023-02-01T11:47:53.864Z,999.30
2023-02-01T11:48:53.850Z,999.30
2023-02-01T11:49:53.819Z,999.34
2023-02-01T11:50:53.799Z,999.29
2023-02-01T11:51:53.765Z,999.32
2023-02-01T11:52:54.840Z,999.28
2023-02-01T11:53:53.723Z,999.22
2023-02-01T11:54:53.695Z,999.19
2023-02-01T11:55:53.668Z,999.20
2023-02-01T11:56:53.652Z,999.20
2023-02-01T11:57:53.611Z,999.17
2023-02-01T11:58:53.700Z,999.18
2023-02-01T11:59:56.824Z,999.14
2023-02-01T12:00:53.561Z,999.21
2023-02-01T12:01:53.546Z,999.28
2023-02-01T12:02:53.547Z,999.16
2023-02-01T12:03:53.479Z,999.17
2023-02-01T12:04:53.446Z,999.24
2023-02-01T12:05:53.426Z,999.17
2023-02-01T12:06:54.223Z,999.30
2023-02-01T12:07:53.367Z,999.22
2023-02-01T12:08:53.382Z,999.20
2023-02-01T12:09:53.324Z,999.21
2023-02-01T12:10:53.316Z,999.14
2023-02-01T12:11:53.288Z,999.11
2023-02-01T12:12:53.252Z,999.06
2023-02-01T12:13:53.261Z,999.15
2023-02-01T12:14:53.203Z,999.10
2023-02-01T12:15:53.181Z,999.09
2023-02-01T12:16:53.172Z,999.10
2023-02-01T12:17:53.129Z,999.07
2023-02-01T12:18:53.100Z,999.06
2023-02-01T12:19:53.701Z,999.04
2023-02-01T12:20:53.057Z,999.09
2023-02-01T12:21:53.034Z,999.00
2023-02-01T12:22:53.007Z,998.99
2023-02-01T12:23:52.972Z,998.93
2023-02-01T12:24:52.960Z,998.93
2023-02-01T12:25:52.925Z,998.87
2023-02-01T12:26:52.989Z,999.03
2023-02-01T12:27:52.873Z,998.97
2023-02-01T12:28:52.863Z,998.94